sensor_id;sensor_type;location;lat;lon;timestamp;pressure;altitude;pressure_sealevel;temperature;humidity
56070;BME280;41944;52.078;-0.058;2024-03-29T00:01:46;97927.86;;;10.40;90.63
56070;BME280;41944;52.078;-0.058;2024-03-29T00:04:13;97923.90;;;10.41;90.82
56070;BME280;41944;52.078;-0.058;2024-03-29T00:06:40;97926.74;;;10.34;90.74
56070;BME280;41944;52.078;-0.058;2024-03-29T00:09:07;97931.41;;;10.17;91.61
56070;BME280;41944;52.078;-0.058;2024-03-29T00:11:34;97940.25;;;10.28;92.35
56070;BME280;41944;52.078;-0.058;2024-03-29T00:14:01;97946.10;;;10.26;92.78
56070;BME280;41944;52.078;-0.058;2024-03-29T00:16:28;97948.85;;;10.34;91.88
56070;BME280;41944;52.078;-0.058;2024-03-29T00:18:55;97956.40;;;10.30;90.90
56070;BME280;41944;52.078;-0.058;2024-03-29T00:21:22;97959.37;;;10.30;91.12
56070;BME280;41944;52.078;-0.058;2024-03-29T00:23:49;97960.83;;;10.42;91.53
56070;BME280;41944;52.078;-0.058;2024-03-29T00:26:16;97963.97;;;10.42;90.73
56070;BME280;41944;52.078;-0.058;2024-03-29T00:28:42;97969.15;;;10.44;89.52
56070;BME280;41944;52.078;-0.058;2024-03-29T00:31:09;97975.71;;;10.38;89.94
56070;BME280;41944;52.078;-0.058;2024-03-29T00:33:38;97979.20;;;10.35;90.46
56070;BME280;41944;52.078;-0.058;2024-03-29T00:36:05;97984.25;;;10.42;90.53
56070;BME280;41944;52.078;-0.058;2024-03-29T00:38:33;97991.48;;;10.34;88.98
56070;BME280;41944;52.078;-0.058;2024-03-29T00:40:59;97994.83;;;10.35;88.23
56070;BME280;41944;52.078;-0.058;2024-03-29T00:43:26;97996.21;;;10.38;89.15
56070;BME280;41944;52.078;-0.058;2024-03-29T00:45:53;98005.66;;;10.30;89.17
56070;BME280;41944;52.078;-0.058;2024-03-29T00:48:20;98001.27;;;10.21;88.54
56070;BME280;41944;52.078;-0.058;2024-03-29T00:50:47;97997.17;;;10.12;89.46
56070;BME280;41944;52.078;-0.058;2024-03-29T00:53:15;97997.82;;;10.15;90.57
56070;BME280;41944;52.078;-0.058;2024-03-29T00:55:42;98011.10;;;10.13;90.47
56070;BME280;41944;52.078;-0.058;2024-03-29T00:58:09;98017.45;;;10.15;90.92
56070;BME280;41944;52.078;-0.058;2024-03-29T01:00:36;98027.15;;;10.11;91.48
56070;BME280;41944;52.078;-0.058;2024-03-29T01:03:04;98033.56;;;10.12;91.66
56070;BME280;41944;52.078;-0.058;2024-03-29T01:05:31;98038.45;;;10.04;91.55
56070;BME280;41944;52.078;-0.058;2024-03-29T01:07:58;98041.03;;;9.98;92.10
56070;BME280;41944;52.078;-0.058;2024-03-29T01:10:25;98044.45;;;9.94;91.91
56070;BME280;41944;52.078;-0.058;2024-03-29T01:12:52;98043.62;;;9.86;92.39
56070;BME280;41944;52.078;-0.058;2024-03-29T01:15:19;98040.78;;;9.72;91.89
56070;BME280;41944;52.078;-0.058;2024-03-29T01:17:45;98037.05;;;9.87;93.20
56070;BME280;41944;52.078;-0.058;2024-03-29T01:20:12;98035.94;;;9.84;92.79
56070;BME280;41944;52.078;-0.058;2024-03-29T01:22:40;98031.34;;;9.62;93.21
56070;BME280;41944;52.078;-0.058;2024-03-29T01:25:08;98029.41;;;9.68;93.15
56070;BME280;41944;52.078;-0.058;2024-03-29T01:27:35;98031.02;;;9.77;92.74
56070;BME280;41944;52.078;-0.058;2024-03-29T01:30:02;98032.30;;;9.66;92.79
56070;BME280;41944;52.078;-0.058;2024-03-29T01:32:29;98036.23;;;9.80;94.02
56070;BME280;41944;52.078;-0.058;2024-03-29T01:34:56;98046.33;;;9.68;93.41
56070;BME280;41944;52.078;-0.058;2024-03-29T01:37:23;98042.83;;;9.82;93.78
56070;BME280;41944;52.078;-0.058;2024-03-29T01:39:51;98040.21;;;9.88;93.13
56070;BME280;41944;52.078;-0.058;2024-03-29T01:42:18;98042.00;;;9.95;92.73
56070;BME280;41944;52.078;-0.058;2024-03-29T01:44:45;98047.67;;;9.81;92.46
56070;BME280;41944;52.078;-0.058;2024-03-29T01:47:12;98046.14;;;9.89;90.96
56070;BME280;41944;52.078;-0.058;2024-03-29T01:49:40;98047.27;;;9.86;90.51
56070;BME280;41944;52.078;-0.058;2024-03-29T01:52:08;98045.72;;;9.82;90.86
56070;BME280;41944;52.078;-0.058;2024-03-29T01:54:35;98038.38;;;9.76;92.20
56070;BME280;41944;52.078;-0.058;2024-03-29T01:57:04;98039.51;;;9.82;91.43
56070;BME280;41944;52.078;-0.058;2024-03-29T01:59:32;98037.79;;;9.74;92.18
56070;BME280;41944;52.078;-0.058;2024-03-29T02:01:59;98037.24;;;9.62;91.74
56070;BME280;41944;52.078;-0.058;2024-03-29T02:04:27;98036.52;;;9.63;92.70
56070;BME280;41944;52.078;-0.058;2024-03-29T02:06:55;98041.45;;;9.64;92.56
56070;BME280;41944;52.078;-0.058;2024-03-29T02:09:22;98039.41;;;9.70;94.18
56070;BME280;41944;52.078;-0.058;2024-03-29T02:11:49;98045.04;;;9.74;93.51
56070;BME280;41944;52.078;-0.058;2024-03-29T02:14:16;98048.62;;;9.75;92.40
56070;BME280;41944;52.078;-0.058;2024-03-29T02:16:43;98054.26;;;9.78;93.62
56070;BME280;41944;52.078;-0.058;2024-03-29T02:19:10;98062.30;;;9.76;92.44
56070;BME280;41944;52.078;-0.058;2024-03-29T02:21:41;98062.82;;;9.77;92.51
56070;BME280;41944;52.078;-0.058;2024-03-29T02:24:10;98068.77;;;9.81;92.35
56070;BME280;41944;52.078;-0.058;2024-03-29T02:26:39;98068.67;;;9.76;91.16
56070;BME280;41944;52.078;-0.058;2024-03-29T02:29:06;98072.61;;;9.70;91.67
56070;BME280;41944;52.078;-0.058;2024-03-29T02:31:33;98071.30;;;9.65;91.75
56070;BME280;41944;52.078;-0.058;2024-03-29T02:34:00;98070.16;;;9.62;92.44
56070;BME280;41944;52.078;-0.058;2024-03-29T02:36:27;98072.02;;;9.62;91.82
56070;BME280;41944;52.078;-0.058;2024-03-29T02:38:54;98067.60;;;9.47;92.36
56070;BME280;41944;52.078;-0.058;2024-03-29T02:41:21;98072.48;;;9.52;93.01
56070;BME280;41944;52.078;-0.058;2024-03-29T02:43:49;98073.41;;;9.31;91.94
56070;BME280;41944;52.078;-0.058;2024-03-29T02:46:16;98077.22;;;9.14;92.32
56070;BME280;41944;52.078;-0.058;2024-03-29T02:48:42;98081.41;;;8.94;91.90
56070;BME280;41944;52.078;-0.058;2024-03-29T02:51:09;98082.79;;;8.57;94.25
56070;BME280;41944;52.078;-0.058;2024-03-29T02:53:37;98087.37;;;8.28;95.98
56070;BME280;41944;52.078;-0.058;2024-03-29T02:56:05;98091.87;;;8.14;98.28
56070;BME280;41944;52.078;-0.058;2024-03-29T02:58:32;98094.12;;;8.05;98.80
56070;BME280;41944;52.078;-0.058;2024-03-29T03:01:05;98103.05;;;7.96;100.00
56070;BME280;41944;52.078;-0.058;2024-03-29T03:03:33;98097.51;;;8.21;100.00
56070;BME280;41944;52.078;-0.058;2024-03-29T03:06:00;98100.11;;;8.21;100.00
56070;BME280;41944;52.078;-0.058;2024-03-29T03:08:26;98113.49;;;8.52;100.00
56070;BME280;41944;52.078;-0.058;2024-03-29T03:10:53;98114.50;;;8.78;100.00
56070;BME280;41944;52.078;-0.058;2024-03-29T03:13:20;98113.98;;;9.08;100.00
56070;BME280;41944;52.078;-0.058;2024-03-29T03:15:47;98116.91;;;9.25;99.50
56070;BME280;41944;52.078;-0.058;2024-03-29T03:18:14;98116.80;;;9.43;99.74
56070;BME280;41944;52.078;-0.058;2024-03-29T03:20:41;98115.42;;;9.56;97.84
56070;BME280;41944;52.078;-0.058;2024-03-29T03:23:08;98116.10;;;9.66;98.30
56070;BME280;41944;52.078;-0.058;2024-03-29T03:25:35;98120.24;;;9.88;95.03
56070;BME280;41944;52.078;-0.058;2024-03-29T03:28:02;98124.79;;;9.96;93.82
56070;BME280;41944;52.078;-0.058;2024-03-29T03:30:29;98125.04;;;10.02;93.83
56070;BME280;41944;52.078;-0.058;2024-03-29T03:32:56;98120.69;;;10.08;92.91
56070;BME280;41944;52.078;-0.058;2024-03-29T03:35:22;98127.04;;;10.04;92.42
56070;BME280;41944;52.078;-0.058;2024-03-29T03:37:49;98131.40;;;10.09;92.39
56070;BME280;41944;52.078;-0.058;2024-03-29T03:40:16;98134.65;;;10.14;92.64
56070;BME280;41944;52.078;-0.058;2024-03-29T03:42:43;98131.68;;;10.16;92.73
56070;BME280;41944;52.078;-0.058;2024-03-29T03:45:10;98136.76;;;10.20;92.76
56070;BME280;41944;52.078;-0.058;2024-03-29T03:47:37;98131.46;;;10.27;91.57
56070;BME280;41944;52.078;-0.058;2024-03-29T03:50:05;98130.17;;;10.26;92.06
56070;BME280;41944;52.078;-0.058;2024-03-29T03:52:32;98127.87;;;10.30;91.84
56070;BME280;41944;52.078;-0.058;2024-03-29T03:54:59;98125.10;;;10.31;91.84
56070;BME280;41944;52.078;-0.058;2024-03-29T03:57:26;98129.42;;;10.33;91.33
56070;BME280;41944;52.078;-0.058;2024-03-29T03:59:53;98131.78;;;10.28;90.73
56070;BME280;41944;52.078;-0.058;2024-03-29T04:02:20;98133.29;;;10.34;90.98
56070;BME280;41944;52.078;-0.058;2024-03-29T04:04:47;98135.65;;;10.25;90.98
56070;BME280;41944;52.078;-0.058;2024-03-29T04:07:15;98135.49;;;10.23;91.85
56070;BME280;41944;52.078;-0.058;2024-03-29T04:09:41;98141.27;;;10.27;91.30
56070;BME280;41944;52.078;-0.058;2024-03-29T04:12:08;98136.82;;;10.32;92.50
56070;BME280;41944;52.078;-0.058;2024-03-29T04:14:36;98135.39;;;10.34;92.09
56070;BME280;41944;52.078;-0.058;2024-03-29T04:17:03;98146.25;;;10.30;92.35
56070;BME280;41944;52.078;-0.058;2024-03-29T04:19:31;98137.46;;;10.38;92.07
56070;BME280;41944;52.078;-0.058;2024-03-29T04:21:58;98143.14;;;10.43;92.48
56070;BME280;41944;52.078;-0.058;2024-03-29T04:24:25;98149.16;;;10.43;92.29
56070;BME280;41944;52.078;-0.058;2024-03-29T04:26:52;98150.96;;;10.40;92.60
56070;BME280;41944;52.078;-0.058;2024-03-29T04:29:19;98156.39;;;10.44;91.93
56070;BME280;41944;52.078;-0.058;2024-03-29T04:31:46;98153.75;;;10.43;92.33
56070;BME280;41944;52.078;-0.058;2024-03-29T04:34:13;98158.59;;;10.41;92.55
56070;BME280;41944;52.078;-0.058;2024-03-29T04:36:40;98155.39;;;10.34;91.76
56070;BME280;41944;52.078;-0.058;2024-03-29T04:39:07;98155.43;;;10.21;92.30
56070;BME280;41944;52.078;-0.058;2024-03-29T04:41:34;98149.67;;;10.36;92.28
56070;BME280;41944;52.078;-0.058;2024-03-29T04:44:01;98150.10;;;10.35;92.39
56070;BME280;41944;52.078;-0.058;2024-03-29T04:46:30;98147.46;;;10.34;91.82
56070;BME280;41944;52.078;-0.058;2024-03-29T04:48:57;98144.81;;;10.33;91.58
56070;BME280;41944;52.078;-0.058;2024-03-29T04:51:25;98144.30;;;10.30;92.27
56070;BME280;41944;52.078;-0.058;2024-03-29T04:53:52;98146.72;;;10.20;92.24
56070;BME280;41944;52.078;-0.058;2024-03-29T04:56:20;98145.42;;;10.21;92.57
56070;BME280;41944;52.078;-0.058;2024-03-29T04:58:46;98146.69;;;10.17;92.54
56070;BME280;41944;52.078;-0.058;2024-03-29T05:01:13;98148.68;;;10.12;93.10
56070;BME280;41944;52.078;-0.058;2024-03-29T05:03:41;98149.59;;;10.04;93.64
56070;BME280;41944;52.078;-0.058;2024-03-29T05:06:08;98155.37;;;10.06;93.39
56070;BME280;41944;52.078;-0.058;2024-03-29T05:08:35;98154.50;;;10.10;93.50
56070;BME280;41944;52.078;-0.058;2024-03-29T05:11:02;98154.15;;;10.10;93.60
56070;BME280;41944;52.078;-0.058;2024-03-29T05:13:29;98153.54;;;10.09;93.35
56070;BME280;41944;52.078;-0.058;2024-03-29T05:15:56;98155.62;;;10.14;93.54
56070;BME280;41944;52.078;-0.058;2024-03-29T05:18:23;98151.98;;;10.15;93.09
56070;BME280;41944;52.078;-0.058;2024-03-29T05:20:49;98157.51;;;10.16;93.27
56070;BME280;41944;52.078;-0.058;2024-03-29T05:23:16;98163.09;;;10.16;92.64
56070;BME280;41944;52.078;-0.058;2024-03-29T05:25:43;98164.14;;;10.17;91.90
56070;BME280;41944;52.078;-0.058;2024-03-29T05:28:10;98171.16;;;10.15;92.71
56070;BME280;41944;52.078;-0.058;2024-03-29T05:30:37;98172.17;;;10.22;92.76
56070;BME280;41944;52.078;-0.058;2024-03-29T05:33:05;98174.90;;;10.22;91.55
56070;BME280;41944;52.078;-0.058;2024-03-29T05:35:33;98176.51;;;10.21;92.14
56070;BME280;41944;52.078;-0.058;2024-03-29T05:38:01;98174.16;;;10.18;91.39
56070;BME280;41944;52.078;-0.058;2024-03-29T05:40:28;98180.68;;;10.15;91.73
56070;BME280;41944;52.078;-0.058;2024-03-29T05:42:55;98185.27;;;10.09;91.75
56070;BME280;41944;52.078;-0.058;2024-03-29T05:45:24;98185.64;;;10.14;91.75
56070;BME280;41944;52.078;-0.058;2024-03-29T05:47:52;98185.14;;;10.06;91.50
56070;BME280;41944;52.078;-0.058;2024-03-29T05:50:20;98187.09;;;10.12;91.29
56070;BME280;41944;52.078;-0.058;2024-03-29T05:52:48;98191.66;;;10.06;90.85
56070;BME280;41944;52.078;-0.058;2024-03-29T05:55:15;98196.74;;;9.99;91.88
56070;BME280;41944;52.078;-0.058;2024-03-29T05:57:42;98196.13;;;9.92;91.71
56070;BME280;41944;52.078;-0.058;2024-03-29T06:00:11;98200.88;;;9.99;92.31
56070;BME280;41944;52.078;-0.058;2024-03-29T06:02:38;98201.64;;;10.01;92.17
56070;BME280;41944;52.078;-0.058;2024-03-29T06:05:06;98198.67;;;10.08;91.31
56070;BME280;41944;52.078;-0.058;2024-03-29T06:07:33;98201.34;;;10.08;90.28
56070;BME280;41944;52.078;-0.058;2024-03-29T06:10:00;98204.22;;;10.04;91.00
56070;BME280;41944;52.078;-0.058;2024-03-29T06:12:27;98206.83;;;10.10;91.36
56070;BME280;41944;52.078;-0.058;2024-03-29T06:14:54;98209.99;;;10.12;90.70
56070;BME280;41944;52.078;-0.058;2024-03-29T06:17:21;98208.35;;;10.13;91.17
56070;BME280;41944;52.078;-0.058;2024-03-29T06:19:48;98205.41;;;10.17;91.06
56070;BME280;41944;52.078;-0.058;2024-03-29T06:22:16;98206.08;;;10.20;90.88
56070;BME280;41944;52.078;-0.058;2024-03-29T06:24:43;98201.40;;;10.19;91.31
56070;BME280;41944;52.078;-0.058;2024-03-29T06:27:09;98200.93;;;10.27;90.91
56070;BME280;41944;52.078;-0.058;2024-03-29T06:29:37;98197.45;;;10.35;90.48
56070;BME280;41944;52.078;-0.058;2024-03-29T06:32:05;98200.11;;;10.32;90.42
56070;BME280;41944;52.078;-0.058;2024-03-29T06:34:32;98208.47;;;10.28;90.38
56070;BME280;41944;52.078;-0.058;2024-03-29T06:36:59;98210.14;;;10.34;90.58
56070;BME280;41944;52.078;-0.058;2024-03-29T06:39:26;98202.08;;;10.34;90.93
56070;BME280;41944;52.078;-0.058;2024-03-29T06:41:53;98207.85;;;10.41;91.06
56070;BME280;41944;52.078;-0.058;2024-03-29T06:44:19;98210.37;;;10.40;91.12
56070;BME280;41944;52.078;-0.058;2024-03-29T06:46:46;98210.02;;;10.40;91.70
56070;BME280;41944;52.078;-0.058;2024-03-29T06:49:14;98203.98;;;10.44;91.00
56070;BME280;41944;52.078;-0.058;2024-03-29T06:51:41;98208.01;;;10.44;91.28
56070;BME280;41944;52.078;-0.058;2024-03-29T06:54:08;98209.32;;;10.40;91.14
56070;BME280;41944;52.078;-0.058;2024-03-29T06:56:35;98215.69;;;10.40;90.93
56070;BME280;41944;52.078;-0.058;2024-03-29T06:59:02;98221.43;;;10.40;91.30
56070;BME280;41944;52.078;-0.058;2024-03-29T07:01:28;98217.98;;;10.40;91.40
56070;BME280;41944;52.078;-0.058;2024-03-29T07:03:56;98221.28;;;10.42;92.09
56070;BME280;41944;52.078;-0.058;2024-03-29T07:06:23;98220.06;;;10.47;91.75
56070;BME280;41944;52.078;-0.058;2024-03-29T07:08:50;98223.35;;;10.50;92.10
56070;BME280;41944;52.078;-0.058;2024-03-29T07:11:17;98229.30;;;10.58;91.64
56070;BME280;41944;52.078;-0.058;2024-03-29T07:13:44;98218.98;;;10.66;91.42
56070;BME280;41944;52.078;-0.058;2024-03-29T07:16:11;98218.70;;;10.74;91.10
56070;BME280;41944;52.078;-0.058;2024-03-29T07:18:38;98222.46;;;10.80;90.17
56070;BME280;41944;52.078;-0.058;2024-03-29T07:21:05;98222.04;;;10.91;90.13
56070;BME280;41944;52.078;-0.058;2024-03-29T07:23:32;98219.91;;;10.94;89.48
56070;BME280;41944;52.078;-0.058;2024-03-29T07:26:00;98225.49;;;10.99;88.84
56070;BME280;41944;52.078;-0.058;2024-03-29T07:28:28;98230.83;;;11.01;89.08
56070;BME280;41944;52.078;-0.058;2024-03-29T07:30:56;98238.30;;;11.11;88.47
56070;BME280;41944;52.078;-0.058;2024-03-29T07:33:24;98232.18;;;11.17;88.46
56070;BME280;41944;52.078;-0.058;2024-03-29T07:35:52;98237.89;;;11.27;87.67
56070;BME280;41944;52.078;-0.058;2024-03-29T07:38:19;98237.96;;;11.31;87.70
56070;BME280;41944;52.078;-0.058;2024-03-29T07:40:46;98243.98;;;11.36;87.85
56070;BME280;41944;52.078;-0.058;2024-03-29T07:43:14;98244.80;;;11.33;87.43
56070;BME280;41944;52.078;-0.058;2024-03-29T07:45:42;98248.97;;;11.30;86.96
56070;BME280;41944;52.078;-0.058;2024-03-29T07:48:12;98253.25;;;11.25;87.40
56070;BME280;41944;52.078;-0.058;2024-03-29T07:50:40;98257.50;;;11.28;87.62
56070;BME280;41944;52.078;-0.058;2024-03-29T07:53:07;98258.09;;;11.26;87.16
56070;BME280;41944;52.078;-0.058;2024-03-29T07:55:35;98257.27;;;11.11;87.34
56070;BME280;41944;52.078;-0.058;2024-03-29T07:58:02;98258.89;;;11.10;88.49
56070;BME280;41944;52.078;-0.058;2024-03-29T08:00:31;98259.76;;;11.17;88.25
56070;BME280;41944;52.078;-0.058;2024-03-29T08:02:59;98271.93;;;11.24;87.64
56070;BME280;41944;52.078;-0.058;2024-03-29T08:05:27;98264.34;;;11.24;87.33
56070;BME280;41944;52.078;-0.058;2024-03-29T08:07:54;98267.61;;;11.27;87.51
56070;BME280;41944;52.078;-0.058;2024-03-29T08:10:22;98274.40;;;11.36;87.07
56070;BME280;41944;52.078;-0.058;2024-03-29T08:12:49;98271.61;;;11.37;87.16
56070;BME280;41944;52.078;-0.058;2024-03-29T08:15:16;98275.72;;;11.37;86.82
56070;BME280;41944;52.078;-0.058;2024-03-29T08:17:43;98279.68;;;11.35;86.94
56070;BME280;41944;52.078;-0.058;2024-03-29T08:20:10;98276.58;;;11.39;87.14
56070;BME280;41944;52.078;-0.058;2024-03-29T08:22:38;98278.48;;;11.40;86.58
56070;BME280;41944;52.078;-0.058;2024-03-29T08:25:05;98279.59;;;11.42;86.00
56070;BME280;41944;52.078;-0.058;2024-03-29T08:27:33;98285.63;;;11.39;85.72
56070;BME280;41944;52.078;-0.058;2024-03-29T08:30:00;98279.71;;;11.45;85.19
56070;BME280;41944;52.078;-0.058;2024-03-29T08:32:26;98279.68;;;11.47;85.10
56070;BME280;41944;52.078;-0.058;2024-03-29T08:34:53;98274.88;;;11.46;85.17
56070;BME280;41944;52.078;-0.058;2024-03-29T08:37:20;98275.20;;;11.42;85.20
56070;BME280;41944;52.078;-0.058;2024-03-29T08:39:47;98272.09;;;11.57;84.89
56070;BME280;41944;52.078;-0.058;2024-03-29T08:42:15;98265.89;;;11.73;84.94
56070;BME280;41944;52.078;-0.058;2024-03-29T08:44:42;98265.64;;;11.83;82.98
56070;BME280;41944;52.078;-0.058;2024-03-29T08:47:09;98273.32;;;11.94;83.47
56070;BME280;41944;52.078;-0.058;2024-03-29T08:49:36;98276.69;;;12.13;83.40
56070;BME280;41944;52.078;-0.058;2024-03-29T08:52:03;98281.94;;;12.25;82.41
56070;BME280;41944;52.078;-0.058;2024-03-29T08:54:30;98286.28;;;12.33;82.15
56070;BME280;41944;52.078;-0.058;2024-03-29T08:56:58;98287.10;;;12.44;80.99
56070;BME280;41944;52.078;-0.058;2024-03-29T08:59:25;98292.54;;;12.47;81.02
56070;BME280;41944;52.078;-0.058;2024-03-29T09:01:52;98293.80;;;12.64;81.01
56070;BME280;41944;52.078;-0.058;2024-03-29T09:04:18;98289.10;;;12.77;80.36
56070;BME280;41944;52.078;-0.058;2024-03-29T09:06:45;98296.42;;;13.02;80.35
56070;BME280;41944;52.078;-0.058;2024-03-29T09:09:12;98295.15;;;13.34;79.70
56070;BME280;41944;52.078;-0.058;2024-03-29T09:11:40;98290.31;;;13.46;78.10
56070;BME280;41944;52.078;-0.058;2024-03-29T09:14:07;98298.70;;;13.65;77.13
56070;BME280;41944;52.078;-0.058;2024-03-29T09:16:34;98296.21;;;13.69;76.38
56070;BME280;41944;52.078;-0.058;2024-03-29T09:19:01;98302.32;;;13.70;76.44
56070;BME280;41944;52.078;-0.058;2024-03-29T09:21:28;98308.82;;;13.63;76.55
56070;BME280;41944;52.078;-0.058;2024-03-29T09:23:55;98316.70;;;13.44;77.30
56070;BME280;41944;52.078;-0.058;2024-03-29T09:26:21;98319.52;;;13.21;77.79
56070;BME280;41944;52.078;-0.058;2024-03-29T09:28:48;98319.65;;;13.07;79.13
56070;BME280;41944;52.078;-0.058;2024-03-29T09:31:16;98324.07;;;12.96;79.44
56070;BME280;41944;52.078;-0.058;2024-03-29T09:33:42;98321.24;;;12.94;80.75
56070;BME280;41944;52.078;-0.058;2024-03-29T09:36:10;98313.48;;;12.97;80.64
56070;BME280;41944;52.078;-0.058;2024-03-29T09:38:38;98316.80;;;12.98;79.91
56070;BME280;41944;52.078;-0.058;2024-03-29T09:41:10;98316.82;;;13.01;79.72
56070;BME280;41944;52.078;-0.058;2024-03-29T09:43:38;98321.96;;;13.08;79.70
56070;BME280;41944;52.078;-0.058;2024-03-29T09:46:05;98329.24;;;13.00;79.02
56070;BME280;41944;52.078;-0.058;2024-03-29T09:48:34;98324.25;;;13.02;79.44
56070;BME280;41944;52.078;-0.058;2024-03-29T09:51:04;98330.73;;;13.11;79.88
56070;BME280;41944;52.078;-0.058;2024-03-29T09:53:34;98335.50;;;13.01;79.02
56070;BME280;41944;52.078;-0.058;2024-03-29T09:56:04;98332.78;;;12.97;79.97
56070;BME280;41944;52.078;-0.058;2024-03-29T09:58:31;98336.58;;;12.92;80.61
56070;BME280;41944;52.078;-0.058;2024-03-29T10:00:58;98341.76;;;12.94;80.91
56070;BME280;41944;52.078;-0.058;2024-03-29T10:03:25;98343.00;;;12.97;81.50
56070;BME280;41944;52.078;-0.058;2024-03-29T10:05:52;98339.64;;;12.91;81.86
56070;BME280;41944;52.078;-0.058;2024-03-29T10:08:19;98344.31;;;12.90;81.74
56070;BME280;41944;52.078;-0.058;2024-03-29T10:10:46;98345.25;;;12.91;81.00
56070;BME280;41944;52.078;-0.058;2024-03-29T10:13:13;98352.33;;;12.90;81.29
56070;BME280;41944;52.078;-0.058;2024-03-29T10:15:41;98348.81;;;12.94;82.55
56070;BME280;41944;52.078;-0.058;2024-03-29T10:18:09;98351.14;;;13.14;81.72
56070;BME280;41944;52.078;-0.058;2024-03-29T10:20:37;98346.28;;;13.18;80.72
56070;BME280;41944;52.078;-0.058;2024-03-29T10:23:05;98348.80;;;13.34;81.38
56070;BME280;41944;52.078;-0.058;2024-03-29T10:25:33;98345.41;;;13.43;80.94
56070;BME280;41944;52.078;-0.058;2024-03-29T10:28:00;98341.80;;;13.63;81.18
56070;BME280;41944;52.078;-0.058;2024-03-29T10:30:27;98340.48;;;13.61;80.32
56070;BME280;41944;52.078;-0.058;2024-03-29T10:32:55;98334.73;;;13.65;80.25
56070;BME280;41944;52.078;-0.058;2024-03-29T10:35:25;98337.69;;;13.73;80.46
56070;BME280;41944;52.078;-0.058;2024-03-29T10:37:52;98335.74;;;13.60;80.25
56070;BME280;41944;52.078;-0.058;2024-03-29T10:40:21;98334.76;;;13.48;81.21
56070;BME280;41944;52.078;-0.058;2024-03-29T10:42:49;98347.75;;;13.54;80.87
56070;BME280;41944;52.078;-0.058;2024-03-29T10:45:17;98337.05;;;13.43;81.10
56070;BME280;41944;52.078;-0.058;2024-03-29T10:47:45;98340.72;;;13.46;82.06
56070;BME280;41944;52.078;-0.058;2024-03-29T10:50:12;98337.95;;;13.33;82.34
56070;BME280;41944;52.078;-0.058;2024-03-29T10:52:40;98341.59;;;13.33;83.38
56070;BME280;41944;52.078;-0.058;2024-03-29T10:55:09;98341.92;;;13.35;84.90
56070;BME280;41944;52.078;-0.058;2024-03-29T10:57:40;98339.45;;;13.51;85.07
56070;BME280;41944;52.078;-0.058;2024-03-29T11:00:12;98325.12;;;13.64;83.46
56070;BME280;41944;52.078;-0.058;2024-03-29T11:02:45;98338.48;;;13.85;81.95
56070;BME280;41944;52.078;-0.058;2024-03-29T11:05:15;98341.48;;;13.96;80.96
56070;BME280;41944;52.078;-0.058;2024-03-29T11:07:44;98341.58;;;13.99;79.54
56070;BME280;41944;52.078;-0.058;2024-03-29T11:10:15;98347.05;;;14.17;78.94
56070;BME280;41944;52.078;-0.058;2024-03-29T11:12:58;98342.91;;;14.36;78.12
56070;BME280;41944;52.078;-0.058;2024-03-29T11:15:29;98349.36;;;14.42;77.68
56070;BME280;41944;52.078;-0.058;2024-03-29T11:17:57;98350.33;;;14.31;76.04
56070;BME280;41944;52.078;-0.058;2024-03-29T11:20:26;98354.94;;;14.38;76.28
56070;BME280;41944;52.078;-0.058;2024-03-29T11:22:54;98351.84;;;14.52;77.13
56070;BME280;41944;52.078;-0.058;2024-03-29T11:25:21;98353.24;;;14.77;76.27
56070;BME280;41944;52.078;-0.058;2024-03-29T11:27:49;98357.37;;;14.94;75.69
56070;BME280;41944;52.078;-0.058;2024-03-29T11:30:17;98355.22;;;14.88;74.29
56070;BME280;41944;52.078;-0.058;2024-03-29T11:32:45;98353.96;;;14.97;74.71
56070;BME280;41944;52.078;-0.058;2024-03-29T11:35:15;98355.39;;;15.09;75.20
56070;BME280;41944;52.078;-0.058;2024-03-29T11:37:43;98357.11;;;15.14;74.40
56070;BME280;41944;52.078;-0.058;2024-03-29T11:40:11;98359.83;;;15.22;73.55
56070;BME280;41944;52.078;-0.058;2024-03-29T11:42:44;98363.94;;;15.29;73.89
56070;BME280;41944;52.078;-0.058;2024-03-29T11:45:11;98358.30;;;15.33;72.18
56070;BME280;41944;52.078;-0.058;2024-03-29T11:47:40;98364.30;;;15.56;72.66
56070;BME280;41944;52.078;-0.058;2024-03-29T11:50:09;98360.55;;;15.68;69.58
56070;BME280;41944;52.078;-0.058;2024-03-29T11:52:38;98359.21;;;15.56;70.80
56070;BME280;41944;52.078;-0.058;2024-03-29T11:55:06;98365.61;;;15.51;71.72
56070;BME280;41944;52.078;-0.058;2024-03-29T11:57:33;98371.08;;;15.54;69.91
56070;BME280;41944;52.078;-0.058;2024-03-29T12:00:01;98379.08;;;15.55;69.92
56070;BME280;41944;52.078;-0.058;2024-03-29T12:02:28;98379.24;;;15.41;70.49
56070;BME280;41944;52.078;-0.058;2024-03-29T12:04:55;98373.80;;;15.37;70.38
56070;BME280;41944;52.078;-0.058;2024-03-29T12:07:22;98371.83;;;15.40;71.19
56070;BME280;41944;52.078;-0.058;2024-03-29T12:09:49;98376.74;;;15.43;72.05
56070;BME280;41944;52.078;-0.058;2024-03-29T12:12:15;98370.66;;;15.69;70.09
56070;BME280;41944;52.078;-0.058;2024-03-29T12:14:42;98370.03;;;15.77;69.50
56070;BME280;41944;52.078;-0.058;2024-03-29T12:17:10;98366.77;;;15.86;69.96
56070;BME280;41944;52.078;-0.058;2024-03-29T12:19:37;98372.25;;;15.99;69.31
56070;BME280;41944;52.078;-0.058;2024-03-29T12:22:05;98371.12;;;16.02;67.77
56070;BME280;41944;52.078;-0.058;2024-03-29T12:24:32;98369.75;;;15.93;68.45
56070;BME280;41944;52.078;-0.058;2024-03-29T12:26:59;98381.63;;;15.90;69.46
56070;BME280;41944;52.078;-0.058;2024-03-29T12:29:26;98373.37;;;15.79;69.83
56070;BME280;41944;52.078;-0.058;2024-03-29T12:31:59;98380.40;;;15.80;70.61
56070;BME280;41944;52.078;-0.058;2024-03-29T12:34:26;98374.72;;;16.03;70.05
56070;BME280;41944;52.078;-0.058;2024-03-29T12:36:53;98380.02;;;16.12;70.43
56070;BME280;41944;52.078;-0.058;2024-03-29T12:39:19;98382.40;;;16.11;71.81
56070;BME280;41944;52.078;-0.058;2024-03-29T12:41:47;98385.84;;;16.11;73.38
56070;BME280;41944;52.078;-0.058;2024-03-29T12:44:14;98382.12;;;16.11;70.61
56070;BME280;41944;52.078;-0.058;2024-03-29T12:46:41;98388.58;;;16.19;69.53
56070;BME280;41944;52.078;-0.058;2024-03-29T12:49:10;98390.49;;;16.29;69.78
56070;BME280;41944;52.078;-0.058;2024-03-29T12:51:40;98391.29;;;16.22;69.75
56070;BME280;41944;52.078;-0.058;2024-03-29T12:54:08;98394.09;;;15.90;70.51